createdAt,value
2023-01-26T00:00:38.131Z,69.90
2023-01-26T00:01:38.109Z,77.20
2023-01-26T00:02:38.143Z,86.00
2023-01-26T00:03:38.191Z,70.60
2023-01-26T00:04:38.092Z,75.90
2023-01-26T00:05:38.114Z,75.20
2023-01-26T00:06:38.106Z,71.80
2023-01-26T00:07:38.294Z,73.70
2023-01-26T00:08:38.067Z,75.40
2023-01-26T00:09:38.007Z,75.20
2023-01-26T00:10:38.954Z,72.30
2023-01-26T00:11:38.008Z,78.30
2023-01-26T00:12:38.019Z,75.30
2023-01-26T00:13:38.004Z,76.40
2023-01-26T00:14:37.997Z,76.60
2023-01-26T00:15:37.990Z,69.70
2023-01-26T00:16:37.967Z,70.50
2023-01-26T00:17:37.934Z,78.80
2023-01-26T00:18:37.980Z,79.80
2023-01-26T00:19:37.906Z,84.20
2023-01-26T00:20:37.953Z,66.10
2023-01-26T00:21:37.889Z,66.00
2023-01-26T00:22:37.884Z,66.50
2023-01-26T00:23:37.859Z,61.20
2023-01-26T00:24:37.924Z,69.30
2023-01-26T00:25:38.474Z,71.80
2023-01-26T00:26:37.863Z,68.50
2023-01-26T00:27:37.817Z,75.40
2023-01-26T00:28:37.838Z,62.20
2023-01-26T00:29:37.850Z,61.90
2023-01-26T00:30:37.868Z,56.60
2023-01-26T00:31:37.862Z,61.80
2023-01-26T00:32:37.793Z,59.70
2023-01-26T00:33:37.779Z,60.60
2023-01-26T00:34:37.859Z,63.10
2023-01-26T00:35:37.782Z,60.70
2023-01-26T00:36:37.763Z,60.60
2023-01-26T00:37:37.735Z,65.90
2023-01-26T00:38:37.697Z,56.80
2023-01-26T00:39:38.139Z,56.10
2023-01-26T00:40:37.688Z,57.60
2023-01-26T00:41:37.730Z,56.30
2023-01-26T00:42:37.671Z,55.00
2023-01-26T00:43:37.634Z,64.10
2023-01-26T00:44:37.686Z,57.30
2023-01-26T00:45:37.613Z,60.00
2023-01-26T00:46:37.678Z,54.00
2023-01-26T00:47:38.473Z,57.70
2023-01-26T00:48:37.641Z,56.20
2023-01-26T00:49:37.597Z,59.10
2023-01-26T00:50:37.562Z,58.30
2023-01-26T00:51:37.653Z,58.70
2023-01-26T00:52:37.555Z,52.80
2023-01-26T00:53:37.567Z,50.20
2023-01-26T00:54:38.311Z,55.40
2023-01-26T00:55:37.690Z,56.30
2023-01-26T00:56:37.493Z,61.70
2023-01-26T00:57:37.497Z,48.10
2023-01-26T00:58:37.477Z,47.20
2023-01-26T00:59:37.557Z,49.70
2023-01-26T01:00:38.497Z,56.20
2023-01-26T01:01:37.485Z,56.90
2023-01-26T01:02:37.433Z,58.80
2023-01-26T01:03:37.448Z,65.60
2023-01-26T01:04:37.441Z,65.80
2023-01-26T01:05:37.436Z,64.50
2023-01-26T01:06:37.414Z,60.50
2023-01-26T01:07:37.384Z,59.50
2023-01-26T01:08:37.359Z,63.20
2023-01-26T01:09:37.455Z,62.70
2023-01-26T01:10:37.339Z,58.40
2023-01-26T01:11:37.390Z,55.40
2023-01-26T01:12:37.956Z,55.90
2023-01-26T01:13:37.337Z,56.40
2023-01-26T01:14:37.294Z,53.50
2023-01-26T01:15:37.357Z,58.20
2023-01-26T01:16:37.315Z,56.90
2023-01-26T01:17:37.333Z,59.60
2023-01-26T01:18:37.293Z,56.10
2023-01-26T01:19:37.253Z,54.50
2023-01-26T01:20:37.268Z,58.90
2023-01-26T01:21:37.226Z,59.50
2023-01-26T01:22:37.204Z,53.90
2023-01-26T01:23:37.225Z,53.10
2023-01-26T01:24:37.176Z,59.60
2023-01-26T01:25:37.184Z,56.00
2023-01-26T01:26:37.214Z,62.90
2023-01-26T01:27:37.226Z,51.40
2023-01-26T01:28:37.166Z,55.00
2023-01-26T01:29:37.147Z,51.40
2023-01-26T01:30:37.362Z,56.40
2023-01-26T01:31:37.389Z,55.90
2023-01-26T01:32:37.092Z,59.90
2023-01-26T02:23:35.634Z,80.90
2023-01-26T02:24:36.609Z,71.70
2023-01-26T02:30:01.339Z,75.90
2023-01-26T02:31:02.410Z,84.80
2023-01-26T02:32:02.288Z,76.00
2023-01-26T02:33:02.282Z,78.50
2023-01-26T02:34:02.303Z,82.00
2023-01-26T02:35:02.395Z,85.60
2023-01-26T02:36:02.247Z,91.20
2023-01-26T02:37:02.234Z,80.30
2023-01-26T02:38:02.621Z,80.90
2023-01-26T02:39:02.236Z,79.10
2023-01-26T02:40:02.231Z,85.60
2023-01-26T02:41:02.169Z,76.90
2023-01-26T02:42:02.179Z,82.40
2023-01-26T02:43:02.145Z,84.20
2023-01-26T02:44:02.151Z,80.70
2023-01-26T02:45:02.166Z,84.10
2023-01-26T02:46:02.222Z,78.00
2023-01-26T02:47:02.123Z,84.20
2023-01-26T02:48:02.118Z,90.90
2023-01-26T02:49:02.088Z,86.50
2023-01-26T02:50:02.096Z,73.30
2023-01-26T02:51:02.083Z,84.70
2023-01-26T02:52:02.112Z,88.90
2023-01-26T02:53:02.045Z,90.90
2023-01-26T02:54:02.057Z,91.00
2023-01-26T02:55:02.039Z,79.00
2023-01-26T02:56:02.057Z,87.70
2023-01-26T02:57:02.008Z,82.50
2023-01-26T02:58:02.062Z,83.80
2023-01-26T02:59:01.968Z,81.00
2023-01-26T03:00:01.983Z,81.50
2023-01-26T03:01:02.092Z,85.40
2023-01-26T03:02:01.991Z,88.50
2023-01-26T03:03:01.968Z,92.00
2023-01-26T03:04:02.196Z,92.30
2023-01-26T03:05:01.904Z,84.70
2023-01-26T03:06:01.958Z,94.50
2023-01-26T03:07:01.879Z,103.90
2023-01-26T03:08:01.926Z,91.00
2023-01-26T03:09:02.756Z,89.90
2023-01-26T03:10:01.928Z,89.40
2023-01-26T03:11:01.846Z,96.60
2023-01-26T03:12:01.859Z,94.20
2023-01-26T03:13:01.808Z,99.70
2023-01-26T03:14:01.816Z,103.80
2023-01-26T03:15:01.849Z,93.10
2023-01-26T03:16:01.867Z,106.10
2023-01-26T03:17:01.784Z,100.10
2023-01-26T03:18:02.140Z,97.70
2023-01-26T03:19:01.743Z,100.40
2023-01-26T03:20:01.798Z,100.20
2023-01-26T03:21:01.738Z,101.50
2023-01-26T03:22:01.724Z,96.60
2023-01-26T03:23:01.698Z,98.10
2023-01-26T03:24:01.742Z,107.80
2023-01-26T03:25:01.723Z,103.70
2023-01-26T03:26:01.704Z,110.10
2023-01-26T03:27:01.661Z,105.60
2023-01-26T03:28:01.667Z,99.50
2023-01-26T03:29:01.677Z,109.60
2023-01-26T03:30:01.661Z,107.10
2023-01-26T03:31:01.616Z,105.30
2023-01-26T03:32:01.616Z,97.90
2023-01-26T03:33:01.597Z,100.20
2023-01-26T03:34:01.638Z,98.40
2023-01-26T03:35:01.608Z,107.50
2023-01-26T03:36:01.586Z,98.10
2023-01-26T03:37:01.546Z,103.50
2023-01-26T03:38:01.799Z,98.60
2023-01-26T03:39:01.530Z,99.10
2023-01-26T03:40:01.583Z,104.40
2023-01-26T03:41:01.527Z,94.40
2023-01-26T03:42:01.535Z,96.20
2023-01-26T03:43:01.535Z,103.40
2023-01-26T03:44:01.534Z,97.90
2023-01-26T03:45:01.497Z,102.70
2023-01-26T03:46:01.458Z,103.20
2023-01-26T03:47:01.443Z,100.90
2023-01-26T03:48:01.463Z,96.90
2023-01-26T03:49:01.410Z,95.50
2023-01-26T03:50:01.455Z,108.10
2023-01-26T03:51:01.392Z,107.30
2023-01-26T03:52:01.424Z,100.70
2023-01-26T03:53:01.369Z,93.60
2023-01-26T03:54:01.379Z,101.80
2023-01-26T03:55:01.391Z,105.70
2023-01-26T03:56:01.367Z,94.90
2023-01-26T03:57:01.316Z,112.90
2023-01-26T03:58:01.377Z,104.50
2023-01-26T03:59:01.314Z,100.60
2023-01-26T04:00:01.344Z,95.00
2023-01-26T04:01:01.320Z,93.10
2023-01-26T04:02:01.367Z,113.40
2023-01-26T04:03:01.265Z,94.90
2023-01-26T04:04:01.267Z,98.80
2023-01-26T04:05:01.294Z,105.60
2023-01-26T04:06:16.469Z,104.80
2023-01-26T04:07:01.218Z,105.30
2023-01-26T04:08:01.208Z,105.90
2023-01-26T04:09:01.459Z,107.50
2023-01-26T04:10:01.238Z,101.80
2023-01-26T04:11:01.207Z,105.40
2023-01-26T04:12:01.173Z,109.80
2023-01-26T04:13:01.144Z,107.10
2023-01-26T04:14:01.154Z,107.80
2023-01-26T04:15:01.163Z,114.30
2023-01-26T04:16:01.428Z,109.70
2023-01-26T04:17:01.102Z,109.10
2023-01-26T04:18:01.125Z,101.90
2023-01-26T04:19:01.084Z,94.50
2023-01-26T04:20:01.169Z,110.90
2023-01-26T04:21:01.102Z,113.20
2023-01-26T04:22:01.063Z,108.40
2023-01-26T04:23:01.030Z,105.50
2023-01-26T04:24:01.076Z,106.50
2023-01-26T04:25:01.013Z,105.20
2023-01-26T04:26:01.054Z,106.40
2023-01-26T04:27:00.993Z,108.40
2023-01-26T04:28:01.243Z,100.00
2023-01-26T04:29:01.014Z,115.20
2023-01-26T04:30:00.965Z,102.20
2023-01-26T04:31:00.970Z,99.50
2023-01-26T04:32:00.952Z,101.80
2023-01-26T04:33:01.171Z,111.30
2023-01-26T04:34:00.933Z,102.40
2023-01-26T04:35:00.932Z,103.60
2023-01-26T04:36:00.973Z,104.60
2023-01-26T04:37:00.868Z,107.40
2023-01-26T04:38:00.881Z,105.20
2023-01-26T04:39:00.873Z,93.40
2023-01-26T04:40:00.862Z,64.60
2023-01-26T04:41:00.837Z,50.20
2023-01-26T04:42:00.873Z,47.90
2023-01-26T04:43:00.812Z,47.80
2023-01-26T04:44:00.850Z,46.00
2023-01-26T04:45:00.778Z,49.40
2023-01-26T04:46:00.803Z,44.60
2023-01-26T04:47:00.810Z,42.30
2023-01-26T04:48:00.778Z,43.30
2023-01-26T04:49:00.741Z,45.20
2023-01-26T04:50:00.754Z,48.60
2023-01-26T04:51:00.731Z,45.20
2023-01-26T04:52:00.721Z,49.70
2023-01-26T04:53:00.727Z,53.00
2023-01-26T04:54:00.719Z,50.60
2023-01-26T04:55:00.664Z,46.80
2023-01-26T04:56:00.697Z,50.20
2023-01-26T04:57:00.654Z,45.00
2023-01-26T04:58:02.072Z,52.70
2023-01-26T04:59:00.637Z,50.80
2023-01-26T05:00:00.658Z,60.90
2023-01-26T05:01:00.654Z,51.10
2023-01-26T05:02:00.625Z,56.10
2023-01-26T05:03:00.600Z,52.20
2023-01-26T05:04:00.640Z,52.30
2023-01-26T05:05:00.608Z,53.20
2023-01-26T05:06:00.574Z,54.00
2023-01-26T05:07:00.547Z,49.80
2023-01-26T05:08:00.598Z,57.70
2023-01-26T05:09:00.520Z,53.40
2023-01-26T05:10:00.516Z,57.70
2023-01-26T05:11:00.500Z,53.70
2023-01-26T05:12:00.546Z,58.00
2023-01-26T05:13:00.463Z,64.30
2023-01-26T05:14:00.489Z,54.80
2023-01-26T05:15:00.463Z,58.00
2023-01-26T05:16:00.492Z,54.40
2023-01-26T05:17:01.857Z,62.00
2023-01-26T05:18:00.431Z,55.20
2023-01-26T05:19:00.422Z,56.40
2023-01-26T05:20:00.452Z,60.90
2023-01-26T05:22:16.773Z,59.10
2023-01-26T05:23:17.827Z,64.20
2023-01-26T05:24:17.825Z,54.40
2023-01-26T05:25:17.796Z,58.70
2023-01-26T05:26:17.791Z,62.40
2023-01-26T05:27:17.736Z,56.90
2023-01-26T05:28:17.712Z,57.00
2023-01-26T05:29:17.748Z,56.40
2023-01-26T05:30:17.951Z,63.30
2023-01-26T05:31:17.739Z,49.50
2023-01-26T05:32:17.706Z,62.80
2023-01-26T05:33:17.677Z,57.60
2023-01-26T05:34:17.696Z,59.30
2023-01-26T05:35:17.671Z,54.40
2023-01-26T05:36:17.632Z,51.60
2023-01-26T05:37:17.683Z,59.10
2023-01-26T05:38:17.600Z,53.70
2023-01-26T05:39:17.599Z,52.90
2023-01-26T05:40:17.565Z,50.80
2023-01-26T05:41:17.586Z,53.40
2023-01-26T05:42:17.594Z,62.40
2023-01-26T05:43:17.594Z,52.20
2023-01-26T05:44:18.521Z,52.90
2023-01-26T05:45:17.586Z,58.00
2023-01-26T05:46:17.512Z,56.80
2023-01-26T05:47:17.574Z,51.50
2023-01-26T05:48:17.527Z,47.30
2023-01-26T05:49:17.551Z,53.30
2023-01-26T05:50:17.513Z,48.70
2023-01-26T05:51:17.539Z,54.40
2023-01-26T05:52:17.465Z,50.90
2023-01-26T05:53:17.457Z,48.80
2023-01-26T05:54:17.462Z,45.80
2023-01-26T05:55:17.463Z,48.50
2023-01-26T05:56:17.454Z,49.20
2023-01-26T05:57:17.445Z,45.90
2023-01-26T05:58:17.379Z,47.10
2023-01-26T05:59:17.462Z,43.30
2023-01-26T06:00:17.372Z,47.40
2023-01-26T06:01:17.386Z,44.50
2023-01-26T06:02:17.510Z,43.00
2023-01-26T06:03:17.331Z,42.30
2023-01-26T06:04:17.411Z,38.60
2023-01-26T06:05:17.322Z,43.80
2023-01-26T06:06:17.329Z,50.50
2023-01-26T06:07:17.323Z,46.30
2023-01-26T06:08:17.300Z,46.50
2023-01-26T06:09:17.306Z,43.40
2023-01-26T06:10:17.250Z,43.60
2023-01-26T06:11:17.301Z,40.20
2023-01-26T06:12:17.274Z,44.30
2023-01-26T06:13:17.291Z,44.50
2023-01-26T06:14:17.200Z,42.20
2023-01-26T06:15:17.231Z,46.40
2023-01-26T06:16:17.196Z,47.60
2023-01-26T06:17:17.179Z,49.30
2023-01-26T06:18:17.163Z,42.00
2023-01-26T06:19:17.185Z,44.00
2023-01-26T06:20:17.187Z,42.70
2023-01-26T06:21:17.144Z,49.10
2023-01-26T06:22:17.141Z,42.30
2023-01-26T06:23:17.116Z,42.80
2023-01-26T06:24:17.155Z,44.50
2023-01-26T06:25:17.169Z,38.10
2023-01-26T06:26:17.130Z,45.00
2023-01-26T06:27:17.079Z,42.70
2023-01-26T06:28:17.202Z,49.50
2023-01-26T06:30:33.660Z,43.70
2023-01-26T06:31:40.848Z,46.50
2023-01-26T06:32:34.496Z,46.60
2023-01-26T06:33:34.426Z,44.80
2023-01-26T06:34:34.470Z,39.10
2023-01-26T06:35:34.428Z,40.70
2023-01-26T06:36:34.530Z,44.00
2023-01-26T06:37:34.361Z,41.80
2023-01-26T06:38:42.011Z,38.80
2023-01-26T06:39:34.398Z,41.80
2023-01-26T06:40:34.401Z,43.40
2023-01-26T06:41:34.449Z,42.40
2023-01-26T06:42:34.327Z,47.00
2023-01-26T06:43:34.389Z,45.00
2023-01-26T06:44:34.325Z,46.50
2023-01-26T06:45:34.284Z,44.60
2023-01-26T06:46:34.368Z,46.50
2023-01-26T06:47:36.004Z,45.00
2023-01-26T06:48:34.308Z,41.20
2023-01-26T06:49:34.271Z,40.50
2023-01-26T06:50:35.191Z,44.70
2023-01-26T06:51:34.382Z,42.70
2023-01-26T06:52:34.226Z,49.90
2023-01-26T06:53:34.238Z,46.20
2023-01-26T06:54:34.251Z,40.90
2023-01-26T06:55:34.167Z,44.30
2023-01-26T06:56:34.219Z,45.30
2023-01-26T06:57:34.144Z,43.80
2023-01-26T06:58:34.190Z,51.10
2023-01-26T06:59:36.200Z,46.60
2023-01-26T07:00:34.126Z,47.20
2023-01-26T07:01:34.146Z,44.10
2023-01-26T07:02:34.435Z,44.00
2023-01-26T07:03:34.103Z,49.60
2023-01-26T07:04:34.129Z,46.10
2023-01-26T07:05:34.057Z,46.50
2023-01-26T07:06:34.635Z,46.60
2023-01-26T07:07:34.209Z,49.10
2023-01-26T07:08:34.383Z,42.60
2023-01-26T07:09:34.021Z,43.00
2023-01-26T07:10:34.021Z,45.40
2023-01-26T07:11:34.766Z,41.90
2023-01-26T07:12:34.134Z,42.60
2023-01-26T07:13:34.002Z,45.80
2023-01-26T07:14:34.019Z,48.70
2023-01-26T07:15:34.033Z,46.80
2023-01-26T07:16:34.197Z,46.00
2023-01-26T07:17:34.046Z,48.00
2023-01-26T07:18:33.977Z,48.40
2023-01-26T07:19:33.963Z,45.20
2023-01-26T07:20:33.892Z,54.90
2023-01-26T07:21:33.922Z,45.30
2023-01-26T07:22:34.642Z,49.30
2023-01-26T07:23:34.982Z,50.10
2023-01-26T07:24:33.843Z,47.10
2023-01-26T07:25:33.893Z,47.00
2023-01-26T07:26:33.816Z,50.50
2023-01-26T07:27:33.879Z,50.90
2023-01-26T07:28:33.832Z,48.90
2023-01-26T07:29:33.831Z,51.20
2023-01-26T07:30:33.827Z,49.10
2023-01-26T07:31:33.833Z,55.20
2023-01-26T07:32:34.674Z,46.60
2023-01-26T07:33:33.811Z,49.10
2023-01-26T07:34:33.786Z,51.50
2023-01-26T07:35:33.781Z,49.30
2023-01-26T07:36:33.785Z,47.90
2023-01-26T07:37:33.721Z,48.80
2023-01-26T07:38:33.721Z,53.80
2023-01-26T07:39:33.687Z,44.70
2023-01-26T07:40:33.678Z,55.30
2023-01-26T07:41:33.712Z,51.50
2023-01-26T07:42:33.646Z,58.60
2023-01-26T07:43:33.657Z,56.30
2023-01-26T07:44:33.704Z,52.50
2023-01-26T07:45:33.648Z,56.80
2023-01-26T07:46:33.669Z,53.60
2023-01-26T07:47:33.627Z,49.90
2023-01-26T07:48:33.571Z,55.10
2023-01-26T07:49:33.670Z,58.40
2023-01-26T07:50:33.604Z,59.30
2023-01-26T07:51:33.580Z,66.40
2023-01-26T07:52:33.529Z,51.20
2023-01-26T07:53:33.527Z,56.30
2023-01-26T07:54:33.562Z,55.60
2023-01-26T07:55:33.683Z,60.90
2023-01-26T07:56:33.544Z,59.30
2023-01-26T07:57:33.517Z,53.10
2023-01-26T07:58:33.470Z,54.10
2023-01-26T07:59:33.496Z,55.00
2023-01-26T08:00:33.453Z,61.10
2023-01-26T08:01:33.509Z,52.50
2023-01-26T08:02:33.453Z,48.20
2023-01-26T08:03:33.420Z,54.50
2023-01-26T08:04:33.421Z,49.70
2023-01-26T08:05:33.419Z,53.20
2023-01-26T08:06:33.360Z,53.10
2023-01-26T08:07:33.414Z,51.90
2023-01-26T08:08:33.354Z,56.40
2023-01-26T08:09:33.365Z,55.40
2023-01-26T08:10:33.334Z,49.20
2023-01-26T08:11:33.392Z,51.10
2023-01-26T08:12:35.589Z,54.60
2023-01-26T08:13:36.105Z,51.90
2023-01-26T08:14:46.116Z,52.70
2023-01-26T08:15:33.351Z,46.90
2023-01-26T08:16:33.325Z,53.10
2023-01-26T08:17:33.304Z,48.50
2023-01-26T08:18:33.315Z,47.40
2023-01-26T08:19:33.311Z,43.70
2023-01-26T08:20:33.224Z,48.60
2023-01-26T08:21:33.290Z,55.70
2023-01-26T08:22:33.193Z,48.30
2023-01-26T08:23:34.061Z,52.10
2023-01-26T08:24:33.168Z,52.80
2023-01-26T08:25:33.285Z,50.00
2023-01-26T08:26:33.153Z,45.60
2023-01-26T08:27:33.207Z,45.80
2023-01-26T08:28:33.180Z,51.10
2023-01-26T08:29:33.199Z,57.80
2023-01-26T08:30:33.650Z,52.70
2023-01-26T08:31:33.155Z,48.00
2023-01-26T08:32:33.151Z,55.80
2023-01-26T08:33:33.111Z,55.80
2023-01-26T08:34:33.078Z,51.20
2023-01-26T08:35:33.170Z,46.80
2023-01-26T08:36:33.049Z,50.80
2023-01-26T08:37:33.123Z,49.50
2023-01-26T08:38:33.060Z,59.40
2023-01-26T08:39:33.028Z,48.10
2023-01-26T08:40:33.003Z,47.20
2023-01-26T08:41:33.442Z,46.20
2023-01-26T08:42:32.999Z,47.90
2023-01-26T08:43:32.977Z,44.70
2023-01-26T08:44:33.044Z,45.40
2023-01-26T08:45:37.730Z,47.90
2023-01-26T08:46:33.739Z,49.30
2023-01-26T08:47:32.925Z,44.40
2023-01-26T08:48:32.986Z,47.60
2023-01-26T08:49:32.959Z,55.40
2023-01-26T08:50:32.895Z,52.80
2023-01-26T08:51:32.885Z,49.70
2023-01-26T08:52:32.857Z,49.60
2023-01-26T08:53:33.727Z,55.40
2023-01-26T08:54:32.871Z,53.00
2023-01-26T08:55:32.834Z,46.90
2023-01-26T08:56:32.859Z,51.80
2023-01-26T08:57:33.226Z,46.80
2023-01-26T08:58:32.789Z,55.70
2023-01-26T08:59:32.829Z,47.70
2023-01-26T09:00:32.755Z,42.80
2023-01-26T09:28:10.859Z,43.10
2023-01-26T09:29:11.903Z,49.40
2023-01-26T09:30:12.956Z,44.00
2023-01-26T09:31:11.941Z,50.40
2023-01-26T09:47:20.046Z,34.30
2023-01-26T10:01:12.041Z,37.40
2023-01-26T10:53:16.712Z,28.90
2023-01-26T10:54:16.554Z,29.30
2023-01-26T10:55:17.452Z,33.40
2023-01-26T10:56:16.405Z,31.00
2023-01-26T10:57:16.498Z,31.10
2023-01-26T10:58:16.496Z,25.00
2023-01-26T10:59:16.430Z,27.40
2023-01-26T11:00:16.394Z,30.00
2023-01-26T11:01:16.415Z,29.20
2023-01-26T11:02:16.395Z,29.10
2023-01-26T11:03:16.413Z,30.70
2023-01-26T11:04:16.340Z,36.80
2023-01-26T11:05:16.354Z,35.90
2023-01-26T11:06:17.477Z,45.50
2023-01-26T11:07:16.341Z,37.40
2023-01-26T11:08:16.325Z,28.90
2023-01-26T11:09:16.273Z,35.70
2023-01-26T11:10:16.320Z,30.70
2023-01-26T11:11:16.229Z,30.60
2023-01-26T11:12:16.242Z,31.50
2023-01-26T11:13:16.252Z,27.50
2023-01-26T11:14:16.203Z,31.10
2023-01-26T11:15:16.171Z,34.30
2023-01-26T11:16:16.294Z,28.50
2023-01-26T11:17:16.180Z,26.10
2023-01-26T11:18:16.283Z,28.40
2023-01-26T11:19:16.113Z,27.40
2023-01-26T11:20:16.134Z,29.20
2023-01-26T11:21:16.197Z,34.20
2023-01-26T11:22:16.119Z,24.30
2023-01-26T11:23:16.138Z,27.80
2023-01-26T11:24:16.139Z,28.30
2023-01-26T11:25:16.114Z,30.70
2023-01-26T11:26:16.162Z,26.30
2023-01-26T11:27:16.053Z,25.10
2023-01-26T11:28:16.122Z,29.40
2023-01-26T11:29:16.045Z,25.50
2023-01-26T11:30:16.081Z,27.20
2023-01-26T11:31:16.081Z,27.80
2023-01-26T11:32:16.002Z,24.60
2023-01-26T11:33:16.014Z,28.40
2023-01-26T11:34:15.992Z,30.50
2023-01-26T11:35:15.941Z,23.20
2023-01-26T11:36:16.023Z,26.30
2023-01-26T11:37:16.725Z,25.50
2023-01-26T11:38:15.995Z,24.50
2023-01-26T11:39:15.918Z,27.40
2023-01-26T11:40:15.954Z,20.10
2023-01-26T11:41:15.913Z,22.10
2023-01-26T11:42:16.862Z,19.90
2023-01-26T11:43:15.842Z,20.80
2023-01-26T11:44:15.881Z,21.80
2023-01-26T11:45:15.833Z,23.80
2023-01-26T11:46:16.000Z,21.70
2023-01-26T11:47:15.830Z,22.40
2023-01-26T11:48:15.850Z,25.20
2023-01-26T11:49:15.846Z,21.80
2023-01-26T11:50:15.806Z,22.80
2023-01-26T11:51:15.772Z,20.60
2023-01-26T11:52:15.788Z,22.30
2023-01-26T11:53:15.731Z,20.90
2023-01-26T11:54:15.785Z,21.00
2023-01-26T11:55:15.804Z,22.40
2023-01-26T11:56:15.729Z,22.70
2023-01-26T11:57:15.780Z,23.30
2023-01-26T11:58:15.710Z,28.20
2023-01-26T11:59:15.910Z,25.00
2023-01-26T12:00:29.174Z,24.20
2023-01-26T12:01:15.740Z,26.60
2023-01-26T12:02:15.806Z,25.60
2023-01-26T12:03:15.800Z,27.10
2023-01-26T12:04:15.704Z,24.50
2023-01-26T12:05:15.686Z,32.50
2023-01-26T12:06:15.611Z,26.60
2023-01-26T12:07:15.757Z,26.30
2023-01-26T12:08:15.590Z,27.40
2023-01-26T12:09:15.615Z,25.20
2023-01-26T12:10:15.586Z,22.30
2023-01-26T12:11:15.539Z,19.80
2023-01-26T12:12:16.583Z,17.80
2023-01-26T12:13:15.517Z,18.90
2023-01-26T12:14:15.583Z,18.20
2023-01-26T12:15:15.489Z,19.50
2023-01-26T12:16:15.554Z,13.10
2023-01-26T12:17:18.529Z,17.70
2023-01-26T12:18:15.491Z,15.70
2023-01-26T12:19:15.512Z,16.70
2023-01-26T12:20:21.777Z,18.20
2023-01-26T12:21:15.434Z,24.10
2023-01-26T12:22:15.535Z,17.80
2023-01-26T12:23:15.402Z,23.10
2023-01-26T12:24:36.041Z,22.40
2023-01-26T12:25:29.062Z,21.50
2023-01-26T12:26:15.403Z,19.50
2023-01-26T12:27:15.405Z,21.00
2023-01-26T12:28:15.359Z,26.60
2023-01-26T12:29:15.367Z,24.50
2023-01-26T12:30:15.348Z,28.10
2023-01-26T12:31:15.455Z,29.60
2023-01-26T12:32:15.310Z,32.30
2023-01-26T12:33:15.349Z,25.30
2023-01-26T12:34:15.319Z,27.50
2023-01-26T12:35:15.259Z,21.60
2023-01-26T12:36:15.286Z,16.60
2023-01-26T12:37:15.237Z,17.50
2023-01-26T12:38:18.248Z,17.30
2023-01-26T12:39:15.211Z,17.60
2023-01-26T12:40:15.467Z,14.40
2023-01-26T12:41:15.211Z,16.80
2023-01-26T12:42:15.202Z,16.70
2023-01-26T12:43:15.189Z,19.10
2023-01-26T12:44:15.230Z,19.10
2023-01-26T12:45:17.569Z,16.00
2023-01-26T12:46:15.286Z,17.20
2023-01-26T12:47:17.001Z,13.50
2023-01-26T12:48:15.132Z,16.90
2023-01-26T12:49:16.030Z,15.90
2023-01-26T12:50:15.698Z,13.30
2023-01-26T12:51:15.077Z,15.20
2023-01-26T12:52:15.183Z,13.90
2023-01-26T12:53:15.078Z,15.80
2023-01-26T12:54:15.151Z,9.90
2023-01-26T12:55:15.078Z,11.80
2023-01-26T12:56:15.055Z,11.40
2023-01-26T12:57:15.019Z,12.60
2023-01-26T12:58:15.292Z,16.50
2023-01-26T12:59:39.463Z,13.60
2023-01-26T13:00:15.299Z,14.40
2023-01-26T13:01:15.036Z,19.40
2023-01-26T13:02:15.131Z,14.60
2023-01-26T13:03:14.964Z,16.10
2023-01-26T13:04:15.007Z,11.50
2023-01-26T13:05:15.015Z,19.20
2023-01-26T13:06:15.011Z,14.10
2023-01-26T13:07:14.973Z,12.90
2023-01-26T13:08:14.979Z,17.00
2023-01-26T13:09:16.905Z,11.70
2023-01-26T13:10:15.458Z,13.80
2023-01-26T13:11:14.940Z,14.70
2023-01-26T13:12:14.941Z,15.20
2023-01-26T13:13:14.882Z,15.20
2023-01-26T13:14:14.991Z,12.30
2023-01-26T13:15:14.892Z,12.30
2023-01-26T13:16:14.931Z,14.10
2023-01-26T13:17:14.819Z,15.80
2023-01-26T13:18:15.524Z,12.50
2023-01-26T13:19:14.836Z,15.10
2023-01-26T13:20:14.967Z,11.40
2023-01-26T13:21:14.826Z,11.20
2023-01-26T13:22:14.819Z,11.60
2023-01-26T13:23:15.148Z,12.00
2023-01-26T13:24:14.929Z,14.00
2023-01-26T13:25:15.338Z,10.50
2023-01-26T13:26:14.916Z,12.40
2023-01-26T13:27:14.697Z,15.50
2023-01-26T13:28:14.721Z,15.00
2023-01-26T13:29:22.458Z,13.00
2023-01-26T13:30:14.779Z,15.50
2023-01-26T13:31:14.798Z,13.10
2023-01-26T13:32:14.704Z,16.00
2023-01-26T13:33:15.455Z,17.40
2023-01-26T13:34:14.742Z,17.60
2023-01-26T13:35:14.612Z,16.80
2023-01-26T13:36:14.688Z,18.60
2023-01-26T13:37:14.621Z,18.30
2023-01-26T13:38:14.632Z,17.90
2023-01-26T13:39:15.439Z,17.20
2023-01-26T13:40:14.612Z,14.70
2023-01-26T13:41:14.866Z,16.00
2023-01-26T13:42:14.663Z,15.10
2023-01-26T13:43:25.856Z,15.30
2023-01-26T13:44:14.519Z,15.50
2023-01-26T13:45:14.566Z,16.50
2023-01-26T13:46:14.787Z,12.50
2023-01-26T13:47:14.568Z,14.90
2023-01-26T13:48:15.486Z,13.00
2023-01-26T13:49:14.565Z,16.80
2023-01-26T13:50:14.499Z,16.40
2023-01-26T13:51:14.456Z,15.60
2023-01-26T13:52:14.546Z,18.90
2023-01-26T13:53:16.450Z,13.90
2023-01-26T13:54:14.587Z,16.00
2023-01-26T13:55:14.477Z,14.50
2023-01-26T13:56:14.481Z,13.40
2023-01-26T13:57:14.486Z,13.30
2023-01-26T13:58:14.401Z,14.70
2023-01-26T13:59:14.361Z,16.60
2023-01-26T14:00:14.640Z,14.50
2023-01-26T14:01:14.408Z,13.10
2023-01-26T14:02:14.384Z,14.70
2023-01-26T14:03:14.428Z,12.90
2023-01-26T14:04:14.602Z,14.50
2023-01-26T14:05:14.354Z,16.50
2023-01-26T14:06:14.422Z,14.40
2023-01-26T14:07:14.712Z,16.00
2023-01-26T14:08:14.394Z,14.90
2023-01-26T14:09:14.247Z,13.40
2023-01-26T14:10:14.353Z,19.50
2023-01-26T14:11:14.452Z,17.00
2023-01-26T14:12:14.504Z,13.40
2023-01-26T14:13:13.946Z,22.90
2023-01-26T14:14:14.242Z,20.40
2023-01-26T14:15:14.287Z,17.50
2023-01-26T14:16:14.186Z,20.10
2023-01-26T14:17:14.123Z,20.10
2023-01-26T14:18:14.911Z,16.60
2023-01-26T14:19:14.093Z,19.30
2023-01-26T14:20:14.162Z,18.30
2023-01-26T14:21:14.129Z,15.60
2023-01-26T14:22:14.254Z,23.50
2023-01-26T14:23:14.088Z,17.50
2023-01-26T14:24:14.110Z,16.40
2023-01-26T14:25:14.356Z,19.40
2023-01-26T14:26:14.292Z,21.30
2023-01-26T14:27:14.106Z,19.80
2023-01-26T14:28:14.949Z,17.60
2023-01-26T14:29:13.994Z,26.60
2023-01-26T14:30:14.297Z,13.80
2023-01-26T14:31:14.026Z,18.50
2023-01-26T14:32:14.297Z,21.10
2023-01-26T14:33:13.978Z,19.30
2023-01-26T14:34:14.119Z,20.70
2023-01-26T14:35:14.058Z,20.20
2023-01-26T14:36:14.019Z,22.10
2023-01-26T14:37:13.979Z,16.50
2023-01-26T14:38:13.991Z,21.60
2023-01-26T14:39:13.877Z,20.10
2023-01-26T14:40:14.263Z,17.80
2023-01-26T14:41:13.855Z,22.60
2023-01-26T14:42:13.968Z,15.60
2023-01-26T14:43:13.867Z,19.80
2023-01-26T14:44:13.849Z,18.40
2023-01-26T14:45:13.825Z,20.20
2023-01-26T14:46:13.833Z,18.60
2023-01-26T14:47:14.113Z,17.60
2023-01-26T14:48:14.550Z,17.60
2023-01-26T14:55:04.577Z,21.90
2023-01-26T14:56:04.918Z,19.00
2023-01-26T14:57:04.557Z,22.80
2023-01-26T14:58:05.577Z,18.70
2023-01-26T14:59:04.617Z,22.50
2023-01-26T15:00:05.556Z,23.10
2023-01-26T15:01:04.716Z,23.60
2023-01-26T15:02:04.646Z,22.10
2023-01-26T15:03:05.160Z,20.80
2023-01-26T15:04:04.489Z,23.20
2023-01-26T15:05:04.505Z,21.30
2023-01-26T15:06:04.471Z,24.30
2023-01-26T15:07:04.421Z,20.40
2023-01-26T15:08:04.550Z,20.40
2023-01-26T15:09:04.461Z,21.20
2023-01-26T15:10:04.474Z,19.90
2023-01-26T15:11:04.426Z,23.10
2023-01-26T15:12:04.410Z,19.60
2023-01-26T15:13:04.396Z,23.20
2023-01-26T15:14:04.367Z,26.10
2023-01-26T15:15:04.345Z,22.40
2023-01-26T15:16:04.453Z,23.50
2023-01-26T15:17:04.310Z,21.80
2023-01-26T15:18:04.378Z,25.90
2023-01-26T15:19:05.032Z,24.00
2023-01-26T15:20:04.303Z,25.80
2023-01-26T15:21:04.311Z,27.90
2023-01-26T15:22:04.643Z,23.40
2023-01-26T15:23:04.261Z,24.60
2023-01-26T15:24:04.353Z,24.10
2023-01-26T15:25:04.243Z,24.80
2023-01-26T15:26:04.325Z,24.20
2023-01-26T15:27:04.222Z,27.60
2023-01-26T15:28:04.217Z,26.80
2023-01-26T15:29:04.210Z,27.60
2023-01-26T15:30:04.272Z,29.10
2023-01-26T15:31:04.510Z,28.30
2023-01-26T15:32:04.238Z,30.90
2023-01-26T15:33:04.180Z,27.80
2023-01-26T15:34:04.312Z,24.60
2023-01-26T15:35:04.178Z,27.40
2023-01-26T15:36:04.167Z,31.40
2023-01-26T15:37:04.157Z,32.50
2023-01-26T15:38:04.095Z,28.10
2023-01-26T15:39:04.327Z,30.60